sensor_id;sensor_type;location;lat;lon;timestamp;P1;durP1;ratioP1;P2;durP2;ratioP2
11839;SDS011;5979;50.800;4.904;2024-03-23T00:54:35;7.53;;;3.33;;
11839;SDS011;5979;50.800;4.904;2024-03-23T00:57:01;5.32;;;2.63;;
11839;SDS011;5979;50.800;4.904;2024-03-23T00:59:27;2.88;;;2.53;;
11839;SDS011;5979;50.800;4.904;2024-03-23T01:01:53;8.02;;;3.20;;
11839;SDS011;5979;50.800;4.904;2024-03-23T01:04:20;7.20;;;2.67;;
11839;SDS011;5979;50.800;4.904;2024-03-23T01:06:45;6.32;;;2.47;;
11839;SDS011;5979;50.800;4.904;2024-03-23T01:09:12;8.00;;;2.97;;
11839;SDS011;5979;50.800;4.904;2024-03-23T01:11:38;5.55;;;2.42;;
11839;SDS011;5979;50.800;4.904;2024-03-23T01:14:04;5.60;;;2.20;;
11839;SDS011;5979;50.800;4.904;2024-03-23T01:16:31;11.05;;;2.80;;
11839;SDS011;5979;50.800;4.904;2024-03-23T01:18:57;7.90;;;2.88;;
11839;SDS011;5979;50.800;4.904;2024-03-23T01:21:22;5.88;;;2.15;;
11839;SDS011;5979;50.800;4.904;2024-03-23T01:23:48;5.13;;;2.65;;
11839;SDS011;5979;50.800;4.904;2024-03-23T01:26:14;5.43;;;2.40;;
11839;SDS011;5979;50.800;4.904;2024-03-23T01:28:40;5.50;;;2.90;;
11839;SDS011;5979;50.800;4.904;2024-03-23T01:31:06;4.68;;;2.67;;
11839;SDS011;5979;50.800;4.904;2024-03-23T01:33:31;4.95;;;2.40;;
11839;SDS011;5979;50.800;4.904;2024-03-23T01:35:57;9.00;;;2.95;;
11839;SDS011;5979;50.800;4.904;2024-03-23T01:38:23;6.28;;;3.28;;
11839;SDS011;5979;50.800;4.904;2024-03-23T01:40:48;7.13;;;2.63;;
11839;SDS011;5979;50.800;4.904;2024-03-23T01:43:14;6.95;;;3.30;;
11839;SDS011;5979;50.800;4.904;2024-03-23T01:45:40;6.97;;;2.75;;
11839;SDS011;5979;50.800;4.904;2024-03-23T01:48:05;5.93;;;2.95;;
11839;SDS011;5979;50.800;4.904;2024-03-23T01:50:32;5.95;;;2.92;;
11839;SDS011;5979;50.800;4.904;2024-03-23T01:52:59;5.45;;;3.58;;
11839;SDS011;5979;50.800;4.904;2024-03-23T01:55:27;5.57;;;2.80;;
11839;SDS011;5979;50.800;4.904;2024-03-23T01:57:53;5.05;;;2.80;;
11839;SDS011;5979;50.800;4.904;2024-03-23T02:00:22;10.05;;;3.53;;
11839;SDS011;5979;50.800;4.904;2024-03-23T02:02:48;9.70;;;3.88;;
11839;SDS011;5979;50.800;4.904;2024-03-23T02:05:14;7.00;;;3.53;;
11839;SDS011;5979;50.800;4.904;2024-03-23T02:07:40;6.03;;;3.17;;
11839;SDS011;5979;50.800;4.904;2024-03-23T02:10:08;7.25;;;3.25;;
11839;SDS011;5979;50.800;4.904;2024-03-23T02:12:40;7.38;;;3.95;;
11839;SDS011;5979;50.800;4.904;2024-03-23T02:15:06;8.40;;;3.80;;
11839;SDS011;5979;50.800;4.904;2024-03-23T02:17:34;7.07;;;3.30;;
11839;SDS011;5979;50.800;4.904;2024-03-23T02:20:00;6.07;;;3.50;;
11839;SDS011;5979;50.800;4.904;2024-03-23T02:22:37;7.53;;;3.80;;
11839;SDS011;5979;50.800;4.904;2024-03-23T02:25:04;9.68;;;3.53;;
11839;SDS011;5979;50.800;4.904;2024-03-23T02:27:30;10.48;;;3.95;;
11839;SDS011;5979;50.800;4.904;2024-03-23T02:29:56;6.28;;;3.97;;
11839;SDS011;5979;50.800;4.904;2024-03-23T02:32:22;6.82;;;3.88;;
11839;SDS011;5979;50.800;4.904;2024-03-23T02:34:47;8.98;;;4.18;;
11839;SDS011;5979;50.800;4.904;2024-03-23T02:37:13;9.18;;;4.72;;
11839;SDS011;5979;50.800;4.904;2024-03-23T02:39:39;9.43;;;3.97;;
11839;SDS011;5979;50.800;4.904;2024-03-23T02:42:05;6.13;;;3.88;;
11839;SDS011;5979;50.800;4.904;2024-03-23T02:44:31;6.93;;;3.20;;
11839;SDS011;5979;50.800;4.904;2024-03-23T02:46:56;5.30;;;3.70;;
11839;SDS011;5979;50.800;4.904;2024-03-23T02:49:22;8.43;;;4.22;;
11839;SDS011;5979;50.800;4.904;2024-03-23T02:51:48;4.75;;;3.33;;
11839;SDS011;5979;50.800;4.904;2024-03-23T02:54:14;7.40;;;3.75;;
11839;SDS011;5979;50.800;4.904;2024-03-23T02:56:40;9.60;;;4.10;;
11839;SDS011;5979;50.800;4.904;2024-03-23T02:59:05;6.80;;;3.65;;
11839;SDS011;5979;50.800;4.904;2024-03-23T03:01:31;7.78;;;3.88;;
11839;SDS011;5979;50.800;4.904;2024-03-23T03:03:57;8.57;;;3.92;;
11839;SDS011;5979;50.800;4.904;2024-03-23T03:06:25;10.65;;;3.90;;
11839;SDS011;5979;50.800;4.904;2024-03-23T03:08:51;9.30;;;3.75;;
11839;SDS011;5979;50.800;4.904;2024-03-23T03:11:17;8.65;;;3.65;;
11839;SDS011;5979;50.800;4.904;2024-03-23T03:13:43;5.93;;;3.53;;
11839;SDS011;5979;50.800;4.904;2024-03-23T03:16:09;7.50;;;4.03;;
11839;SDS011;5979;50.800;4.904;2024-03-23T03:18:35;6.93;;;3.50;;
11839;SDS011;5979;50.800;4.904;2024-03-23T03:21:01;7.85;;;4.00;;
11839;SDS011;5979;50.800;4.904;2024-03-23T03:23:27;7.88;;;4.75;;
11839;SDS011;5979;50.800;4.904;2024-03-23T03:25:53;8.95;;;4.85;;
11839;SDS011;5979;50.800;4.904;2024-03-23T03:28:18;6.22;;;4.75;;
11839;SDS011;5979;50.800;4.904;2024-03-23T03:30:44;9.88;;;4.80;;
11839;SDS011;5979;50.800;4.904;2024-03-23T03:33:10;8.57;;;4.68;;
11839;SDS011;5979;50.800;4.904;2024-03-23T03:35:36;11.63;;;5.32;;
11839;SDS011;5979;50.800;4.904;2024-03-23T03:38:02;11.10;;;5.60;;
11839;SDS011;5979;50.800;4.904;2024-03-23T03:40:29;10.75;;;6.15;;
11839;SDS011;5979;50.800;4.904;2024-03-23T03:42:55;9.20;;;5.38;;
11839;SDS011;5979;50.800;4.904;2024-03-23T03:45:21;12.65;;;6.28;;
11839;SDS011;5979;50.800;4.904;2024-03-23T03:47:46;8.65;;;6.57;;
11839;SDS011;5979;50.800;4.904;2024-03-23T03:50:12;12.85;;;6.03;;
11839;SDS011;5979;50.800;4.904;2024-03-23T03:52:38;13.13;;;6.60;;
11839;SDS011;5979;50.800;4.904;2024-03-23T03:55:03;11.35;;;6.45;;
11839;SDS011;5979;50.800;4.904;2024-03-23T03:57:37;13.02;;;6.82;;
11839;SDS011;5979;50.800;4.904;2024-03-23T04:00:03;14.13;;;6.50;;
11839;SDS011;5979;50.800;4.904;2024-03-23T04:02:29;11.02;;;6.40;;
11839;SDS011;5979;50.800;4.904;2024-03-23T04:04:55;11.90;;;7.00;;
11839;SDS011;5979;50.800;4.904;2024-03-23T04:07:20;9.40;;;7.63;;
11839;SDS011;5979;50.800;4.904;2024-03-23T04:09:47;10.88;;;6.95;;
11839;SDS011;5979;50.800;4.904;2024-03-23T04:12:14;12.90;;;7.53;;
11839;SDS011;5979;50.800;4.904;2024-03-23T04:14:40;10.68;;;6.47;;
11839;SDS011;5979;50.800;4.904;2024-03-23T04:17:06;7.53;;;6.72;;
11839;SDS011;5979;50.800;4.904;2024-03-23T04:19:32;14.38;;;7.45;;
11839;SDS011;5979;50.800;4.904;2024-03-23T04:21:57;10.73;;;7.10;;
11839;SDS011;5979;50.800;4.904;2024-03-23T04:24:23;12.40;;;7.28;;
11839;SDS011;5979;50.800;4.904;2024-03-23T04:26:51;16.10;;;7.97;;
11839;SDS011;5979;50.800;4.904;2024-03-23T04:29:16;12.68;;;8.07;;
11839;SDS011;5979;50.800;4.904;2024-03-23T04:31:42;12.05;;;8.23;;
11839;SDS011;5979;50.800;4.904;2024-03-23T04:34:08;12.73;;;7.70;;
11839;SDS011;5979;50.800;4.904;2024-03-23T04:36:33;13.35;;;8.27;;
11839;SDS011;5979;50.800;4.904;2024-03-23T04:38:59;10.68;;;8.40;;
11839;SDS011;5979;50.800;4.904;2024-03-23T04:41:25;17.48;;;8.65;;
11839;SDS011;5979;50.800;4.904;2024-03-23T04:43:51;14.52;;;8.93;;
11839;SDS011;5979;50.800;4.904;2024-03-23T04:46:17;15.73;;;8.95;;
11839;SDS011;5979;50.800;4.904;2024-03-23T04:48:43;14.23;;;8.63;;
11839;SDS011;5979;50.800;4.904;2024-03-23T04:51:09;12.25;;;9.10;;
11839;SDS011;5979;50.800;4.904;2024-03-23T04:53:38;16.55;;;9.13;;
11839;SDS011;5979;50.800;4.904;2024-03-23T04:56:04;15.57;;;8.82;;
11839;SDS011;5979;50.800;4.904;2024-03-23T04:58:30;16.95;;;9.35;;
11839;SDS011;5979;50.800;4.904;2024-03-23T05:00:55;19.02;;;9.27;;
11839;SDS011;5979;50.800;4.904;2024-03-23T05:03:22;16.20;;;8.93;;
11839;SDS011;5979;50.800;4.904;2024-03-23T05:05:48;16.38;;;9.60;;
11839;SDS011;5979;50.800;4.904;2024-03-23T05:08:14;18.33;;;8.35;;
11839;SDS011;5979;50.800;4.904;2024-03-23T05:10:43;16.58;;;10.20;;
11839;SDS011;5979;50.800;4.904;2024-03-23T05:13:09;13.82;;;9.73;;
11839;SDS011;5979;50.800;4.904;2024-03-23T05:15:35;14.75;;;8.95;;
11839;SDS011;5979;50.800;4.904;2024-03-23T05:18:00;16.27;;;9.68;;
11839;SDS011;5979;50.800;4.904;2024-03-23T05:20:26;15.77;;;9.65;;
11839;SDS011;5979;50.800;4.904;2024-03-23T05:22:52;13.50;;;9.73;;
11839;SDS011;5979;50.800;4.904;2024-03-23T05:25:19;17.23;;;9.02;;
11839;SDS011;5979;50.800;4.904;2024-03-23T05:27:45;14.57;;;9.63;;
11839;SDS011;5979;50.800;4.904;2024-03-23T05:30:11;15.32;;;9.93;;
11839;SDS011;5979;50.800;4.904;2024-03-23T05:32:36;18.27;;;9.82;;
11839;SDS011;5979;50.800;4.904;2024-03-23T05:35:05;17.63;;;10.02;;
11839;SDS011;5979;50.800;4.904;2024-03-23T05:37:32;12.52;;;8.63;;
11839;SDS011;5979;50.800;4.904;2024-03-23T05:39:59;19.67;;;10.07;;
11839;SDS011;5979;50.800;4.904;2024-03-23T05:42:25;16.60;;;9.98;;
11839;SDS011;5979;50.800;4.904;2024-03-23T05:44:51;21.25;;;10.02;;
11839;SDS011;5979;50.800;4.904;2024-03-23T05:47:17;15.07;;;9.43;;
11839;SDS011;5979;50.800;4.904;2024-03-23T05:49:43;17.02;;;9.13;;
11839;SDS011;5979;50.800;4.904;2024-03-23T05:52:09;13.85;;;9.13;;
11839;SDS011;5979;50.800;4.904;2024-03-23T05:54:35;15.55;;;8.63;;
11839;SDS011;5979;50.800;4.904;2024-03-23T05:57:01;12.38;;;9.02;;
11839;SDS011;5979;50.800;4.904;2024-03-23T05:59:27;16.88;;;8.43;;
11839;SDS011;5979;50.800;4.904;2024-03-23T06:01:53;12.35;;;7.68;;
11839;SDS011;5979;50.800;4.904;2024-03-23T06:04:18;16.20;;;7.53;;
11839;SDS011;5979;50.800;4.904;2024-03-23T06:06:45;14.10;;;7.38;;
11839;SDS011;5979;50.800;4.904;2024-03-23T06:09:10;12.50;;;6.65;;
11839;SDS011;5979;50.800;4.904;2024-03-23T06:11:36;9.07;;;6.75;;
11839;SDS011;5979;50.800;4.904;2024-03-23T06:14:02;10.80;;;6.35;;
11839;SDS011;5979;50.800;4.904;2024-03-23T06:16:27;10.05;;;5.68;;
11839;SDS011;5979;50.800;4.904;2024-03-23T06:18:53;9.25;;;5.88;;
11839;SDS011;5979;50.800;4.904;2024-03-23T06:21:20;10.48;;;5.35;;
11839;SDS011;5979;50.800;4.904;2024-03-23T06:23:46;10.38;;;6.50;;
11839;SDS011;5979;50.800;4.904;2024-03-23T06:26:18;14.40;;;5.95;;
11839;SDS011;5979;50.800;4.904;2024-03-23T06:28:44;8.15;;;5.70;;
11839;SDS011;5979;50.800;4.904;2024-03-23T06:31:10;10.10;;;5.53;;
11839;SDS011;5979;50.800;4.904;2024-03-23T06:33:36;9.93;;;5.45;;
11839;SDS011;5979;50.800;4.904;2024-03-23T06:36:03;11.18;;;5.88;;
11839;SDS011;5979;50.800;4.904;2024-03-23T06:38:33;14.50;;;5.63;;
11839;SDS011;5979;50.800;4.904;2024-03-23T06:40:59;11.73;;;5.53;;
11839;SDS011;5979;50.800;4.904;2024-03-23T06:43:28;9.85;;;5.47;;
11839;SDS011;5979;50.800;4.904;2024-03-23T06:45:54;7.65;;;5.20;;
11839;SDS011;5979;50.800;4.904;2024-03-23T06:48:20;8.18;;;4.88;;
11839;SDS011;5979;50.800;4.904;2024-03-23T06:50:46;7.53;;;4.85;;
11839;SDS011;5979;50.800;4.904;2024-03-23T06:53:14;10.73;;;5.10;;
11839;SDS011;5979;50.800;4.904;2024-03-23T06:55:41;8.52;;;5.35;;
11839;SDS011;5979;50.800;4.904;2024-03-23T06:58:07;7.05;;;4.88;;
11839;SDS011;5979;50.800;4.904;2024-03-23T07:00:33;8.32;;;4.75;;
11839;SDS011;5979;50.800;4.904;2024-03-23T07:02:59;9.80;;;4.65;;
11839;SDS011;5979;50.800;4.904;2024-03-23T07:05:25;7.75;;;4.13;;
11839;SDS011;5979;50.800;4.904;2024-03-23T07:07:51;5.95;;;4.07;;
11839;SDS011;5979;50.800;4.904;2024-03-23T07:10:17;9.80;;;4.40;;
11839;SDS011;5979;50.800;4.904;2024-03-23T07:12:43;9.32;;;3.72;;
11839;SDS011;5979;50.800;4.904;2024-03-23T07:15:09;9.82;;;3.80;;
11839;SDS011;5979;50.800;4.904;2024-03-23T07:17:35;8.60;;;4.18;;
11839;SDS011;5979;50.800;4.904;2024-03-23T07:20:01;8.05;;;3.58;;
11839;SDS011;5979;50.800;4.904;2024-03-23T07:22:29;6.60;;;3.40;;
11839;SDS011;5979;50.800;4.904;2024-03-23T07:24:56;7.18;;;3.97;;
11839;SDS011;5979;50.800;4.904;2024-03-23T07:27:22;11.52;;;3.92;;
11839;SDS011;5979;50.800;4.904;2024-03-23T07:29:48;6.93;;;3.28;;
11839;SDS011;5979;50.800;4.904;2024-03-23T07:32:14;10.05;;;3.38;;
11839;SDS011;5979;50.800;4.904;2024-03-23T07:34:41;8.18;;;3.42;;
11839;SDS011;5979;50.800;4.904;2024-03-23T07:37:08;11.32;;;3.83;;
11839;SDS011;5979;50.800;4.904;2024-03-23T07:39:34;7.10;;;3.20;;
11839;SDS011;5979;50.800;4.904;2024-03-23T07:41:59;12.02;;;3.42;;
11839;SDS011;5979;50.800;4.904;2024-03-23T07:44:25;5.68;;;2.95;;
11839;SDS011;5979;50.800;4.904;2024-03-23T07:46:50;10.05;;;3.17;;
11839;SDS011;5979;50.800;4.904;2024-03-23T07:49:16;6.97;;;3.28;;
11839;SDS011;5979;50.800;4.904;2024-03-23T07:51:42;6.50;;;2.42;;
11839;SDS011;5979;50.800;4.904;2024-03-23T07:54:08;4.93;;;2.30;;
11839;SDS011;5979;50.800;4.904;2024-03-23T07:56:33;6.20;;;2.35;;
11839;SDS011;5979;50.800;4.904;2024-03-23T07:58:59;3.72;;;1.95;;
11839;SDS011;5979;50.800;4.904;2024-03-23T08:01:25;3.33;;;1.73;;
11839;SDS011;5979;50.800;4.904;2024-03-23T08:03:50;1.65;;;1.55;;
11839;SDS011;5979;50.800;4.904;2024-03-23T08:06:17;2.30;;;1.75;;
11839;SDS011;5979;50.800;4.904;2024-03-23T08:08:48;4.10;;;2.10;;
11839;SDS011;5979;50.800;4.904;2024-03-23T08:11:16;8.45;;;2.53;;
11839;SDS011;5979;50.800;4.904;2024-03-23T08:13:42;3.35;;;2.58;;
11839;SDS011;5979;50.800;4.904;2024-03-23T08:16:10;7.55;;;3.55;;
11839;SDS011;5979;50.800;4.904;2024-03-23T08:18:37;5.90;;;2.97;;
11839;SDS011;5979;50.800;4.904;2024-03-23T08:21:03;8.50;;;3.50;;
11839;SDS011;5979;50.800;4.904;2024-03-23T08:23:30;3.85;;;3.15;;
11839;SDS011;5979;50.800;4.904;2024-03-23T08:26:02;8.30;;;3.80;;
11839;SDS011;5979;50.800;4.904;2024-03-23T08:28:38;9.35;;;3.92;;
11839;SDS011;5979;50.800;4.904;2024-03-23T08:31:06;11.95;;;4.07;;
11839;SDS011;5979;50.800;4.904;2024-03-23T08:33:33;10.25;;;3.63;;
11839;SDS011;5979;50.800;4.904;2024-03-23T08:36:00;11.60;;;3.90;;
11839;SDS011;5979;50.800;4.904;2024-03-23T08:38:27;6.53;;;3.88;;
11839;SDS011;5979;50.800;4.904;2024-03-23T08:41:07;13.43;;;4.25;;
11839;SDS011;5979;50.800;4.904;2024-03-23T08:43:42;12.35;;;4.55;;
11839;SDS011;5979;50.800;4.904;2024-03-23T08:46:09;8.50;;;4.00;;
11839;SDS011;5979;50.800;4.904;2024-03-23T08:48:39;6.15;;;3.50;;
11839;SDS011;5979;50.800;4.904;2024-03-23T08:51:10;10.32;;;3.97;;
11839;SDS011;5979;50.800;4.904;2024-03-23T08:53:37;7.45;;;3.50;;
11839;SDS011;5979;50.800;4.904;2024-03-23T08:56:04;7.75;;;3.13;;
11839;SDS011;5979;50.800;4.904;2024-03-23T08:58:31;9.73;;;3.47;;
11839;SDS011;5979;50.800;4.904;2024-03-23T09:01:03;9.18;;;3.20;;
11839;SDS011;5979;50.800;4.904;2024-03-23T09:03:32;8.32;;;3.38;;
11839;SDS011;5979;50.800;4.904;2024-03-23T09:05:59;7.32;;;2.90;;
11839;SDS011;5979;50.800;4.904;2024-03-23T09:08:25;8.55;;;3.92;;
11839;SDS011;5979;50.800;4.904;2024-03-23T09:10:51;5.57;;;3.05;;
11839;SDS011;5979;50.800;4.904;2024-03-23T09:13:17;4.25;;;2.88;;
11839;SDS011;5979;50.800;4.904;2024-03-23T09:15:47;8.18;;;3.60;;
11839;SDS011;5979;50.800;4.904;2024-03-23T09:18:12;7.47;;;3.10;;
11839;SDS011;5979;50.800;4.904;2024-03-23T09:20:38;9.05;;;3.17;;
11839;SDS011;5979;50.800;4.904;2024-03-23T09:23:04;7.63;;;3.63;;
11839;SDS011;5979;50.800;4.904;2024-03-23T09:25:29;5.35;;;2.97;;
11839;SDS011;5979;50.800;4.904;2024-03-23T09:27:55;8.75;;;3.20;;
11839;SDS011;5979;50.800;4.904;2024-03-23T09:30:21;7.85;;;3.50;;
11839;SDS011;5979;50.800;4.904;2024-03-23T09:32:46;4.78;;;2.97;;
11839;SDS011;5979;50.800;4.904;2024-03-23T09:35:12;4.50;;;3.40;;
11839;SDS011;5979;50.800;4.904;2024-03-23T09:37:41;8.30;;;3.47;;
11839;SDS011;5979;50.800;4.904;2024-03-23T09:40:10;5.75;;;3.33;;
11839;SDS011;5979;50.800;4.904;2024-03-23T09:42:36;5.07;;;3.30;;
11839;SDS011;5979;50.800;4.904;2024-03-23T09:45:02;3.90;;;3.30;;
11839;SDS011;5979;50.800;4.904;2024-03-23T09:47:32;6.22;;;3.17;;
11839;SDS011;5979;50.800;4.904;2024-03-23T09:49:58;7.10;;;2.80;;
11839;SDS011;5979;50.800;4.904;2024-03-23T09:52:25;5.90;;;3.00;;
11839;SDS011;5979;50.800;4.904;2024-03-23T09:54:51;6.20;;;2.85;;
11839;SDS011;5979;50.800;4.904;2024-03-23T09:57:17;8.38;;;3.45;;
11839;SDS011;5979;50.800;4.904;2024-03-23T09:59:42;6.18;;;3.03;;
11839;SDS011;5979;50.800;4.904;2024-03-23T10:02:08;2.88;;;2.53;;
11839;SDS011;5979;50.800;4.904;2024-03-23T10:04:39;5.63;;;2.67;;
11839;SDS011;5979;50.800;4.904;2024-03-23T10:07:19;7.38;;;3.00;;
11839;SDS011;5979;50.800;4.904;2024-03-23T10:09:46;7.63;;;3.28;;
11839;SDS011;5979;50.800;4.904;2024-03-23T10:12:13;5.15;;;3.15;;
11839;SDS011;5979;50.800;4.904;2024-03-23T10:14:41;4.18;;;2.60;;
11839;SDS011;5979;50.800;4.904;2024-03-23T10:17:17;5.32;;;2.80;;
11839;SDS011;5979;50.800;4.904;2024-03-23T10:19:46;4.47;;;2.70;;
11839;SDS011;5979;50.800;4.904;2024-03-23T10:22:16;5.05;;;3.00;;
11839;SDS011;5979;50.800;4.904;2024-03-23T10:24:47;7.40;;;3.67;;
11839;SDS011;5979;50.800;4.904;2024-03-23T10:27:17;6.25;;;3.08;;
11839;SDS011;5979;50.800;4.904;2024-03-23T10:29:47;4.28;;;2.90;;
11839;SDS011;5979;50.800;4.904;2024-03-23T10:32:14;7.15;;;3.33;;
11839;SDS011;5979;50.800;4.904;2024-03-23T10:34:41;4.20;;;2.50;;
11839;SDS011;5979;50.800;4.904;2024-03-23T10:37:07;3.58;;;2.72;;
11839;SDS011;5979;50.800;4.904;2024-03-23T10:42:07;4.75;;;3.30;;
11839;SDS011;5979;50.800;4.904;2024-03-23T10:44:34;5.32;;;3.30;;
11839;SDS011;5979;50.800;4.904;2024-03-23T10:47:03;5.72;;;2.85;;
11839;SDS011;5979;50.800;4.904;2024-03-23T10:49:30;4.95;;;2.90;;
11839;SDS011;5979;50.800;4.904;2024-03-23T10:52:01;3.70;;;2.60;;
11839;SDS011;5979;50.800;4.904;2024-03-23T10:54:29;4.03;;;2.40;;
11839;SDS011;5979;50.800;4.904;2024-03-23T10:59:36;4.13;;;1.90;;
11839;SDS011;5979;50.800;4.904;2024-03-23T11:02:03;4.05;;;2.05;;
11839;SDS011;5979;50.800;4.904;2024-03-23T11:04:32;4.07;;;1.75;;
11839;SDS011;5979;50.800;4.904;2024-03-23T11:07:00;3.13;;;1.60;;
11839;SDS011;5979;50.800;4.904;2024-03-23T11:09:39;7.15;;;2.22;;
11839;SDS011;5979;50.800;4.904;2024-03-23T11:14:48;3.60;;;1.80;;
11839;SDS011;5979;50.800;4.904;2024-03-23T11:17:22;5.25;;;1.98;;
11839;SDS011;5979;50.800;4.904;2024-03-23T11:20:01;3.40;;;1.95;;
11839;SDS011;5979;50.800;4.904;2024-03-23T11:25:21;4.15;;;2.05;;
11839;SDS011;5979;50.800;4.904;2024-03-23T11:27:49;2.17;;;1.70;;
11839;SDS011;5979;50.800;4.904;2024-03-23T11:30:20;4.82;;;1.55;;
11839;SDS011;5979;50.800;4.904;2024-03-23T11:32:54;3.60;;;1.77;;
11839;SDS011;5979;50.800;4.904;2024-03-23T11:35:33;4.22;;;1.65;;
11839;SDS011;5979;50.800;4.904;2024-03-23T11:40:38;4.53;;;1.70;;
11839;SDS011;5979;50.800;4.904;2024-03-23T11:43:06;3.72;;;1.58;;
11839;SDS011;5979;50.800;4.904;2024-03-23T11:45:34;2.80;;;1.60;;
11839;SDS011;5979;50.800;4.904;2024-03-23T11:48:08;2.65;;;1.70;;
11839;SDS011;5979;50.800;4.904;2024-03-23T11:50:36;3.17;;;1.48;;
11839;SDS011;5979;50.800;4.904;2024-03-23T11:53:06;6.95;;;1.80;;
11839;SDS011;5979;50.800;4.904;2024-03-23T11:55:38;4.05;;;1.80;;
11839;SDS011;5979;50.800;4.904;2024-03-23T11:58:05;6.88;;;2.03;;
11839;SDS011;5979;50.800;4.904;2024-03-23T12:00:31;4.47;;;1.67;;
11839;SDS011;5979;50.800;4.904;2024-03-23T12:03:03;3.20;;;1.80;;
11839;SDS011;5979;50.800;4.904;2024-03-23T12:05:30;3.42;;;1.67;;
11839;SDS011;5979;50.800;4.904;2024-03-23T12:08:18;2.08;;;1.88;;
11839;SDS011;5979;50.800;4.904;2024-03-23T12:10:53;2.35;;;1.50;;
11839;SDS011;5979;50.800;4.904;2024-03-23T12:13:30;5.78;;;2.00;;
11839;SDS011;5979;50.800;4.904;2024-03-23T12:15:57;2.65;;;1.55;;
11839;SDS011;5979;50.800;4.904;2024-03-23T12:18:52;3.47;;;1.80;;
11839;SDS011;5979;50.800;4.904;2024-03-23T12:21:18;6.20;;;1.80;;
11839;SDS011;5979;50.800;4.904;2024-03-23T12:23:44;6.20;;;2.22;;
11839;SDS011;5979;50.800;4.904;2024-03-23T12:26:11;2.35;;;1.33;;
11839;SDS011;5979;50.800;4.904;2024-03-23T12:28:37;5.05;;;1.35;;
11839;SDS011;5979;50.800;4.904;2024-03-23T12:31:04;3.15;;;1.58;;
11839;SDS011;5979;50.800;4.904;2024-03-23T12:33:30;4.55;;;1.92;;
11839;SDS011;5979;50.800;4.904;2024-03-23T12:35:56;1.92;;;1.70;;
11839;SDS011;5979;50.800;4.904;2024-03-23T12:38:22;5.38;;;1.88;;
11839;SDS011;5979;50.800;4.904;2024-03-23T12:40:51;3.92;;;1.40;;
11839;SDS011;5979;50.800;4.904;2024-03-23T12:43:17;3.55;;;1.40;;
11839;SDS011;5979;50.800;4.904;2024-03-23T12:45:48;2.88;;;1.30;;
11839;SDS011;5979;50.800;4.904;2024-03-23T12:48:14;2.95;;;1.33;;
11839;SDS011;5979;50.800;4.904;2024-03-23T12:50:39;3.83;;;1.45;;
11839;SDS011;5979;50.800;4.904;2024-03-23T12:53:05;3.35;;;1.48;;
11839;SDS011;5979;50.800;4.904;2024-03-23T12:55:31;2.33;;;1.40;;
11839;SDS011;5979;50.800;4.904;2024-03-23T12:57:56;3.50;;;1.33;;
11839;SDS011;5979;50.800;4.904;2024-03-23T13:00:22;3.20;;;1.33;;
11839;SDS011;5979;50.800;4.904;2024-03-23T13:02:48;1.50;;;1.35;;
11839;SDS011;5979;50.800;4.904;2024-03-23T13:05:14;3.97;;;1.52;;
11839;SDS011;5979;50.800;4.904;2024-03-23T13:07:39;4.25;;;1.80;;
11839;SDS011;5979;50.800;4.904;2024-03-23T13:10:05;3.28;;;1.80;;
11839;SDS011;5979;50.800;4.904;2024-03-23T13:12:32;4.10;;;1.30;;
11839;SDS011;5979;50.800;4.904;2024-03-23T13:14:58;3.08;;;1.70;;
11839;SDS011;5979;50.800;4.904;2024-03-23T13:17:24;2.78;;;1.63;;
11839;SDS011;5979;50.800;4.904;2024-03-23T13:19:54;4.35;;;1.40;;
11839;SDS011;5979;50.800;4.904;2024-03-23T13:22:21;2.15;;;1.10;;
11839;SDS011;5979;50.800;4.904;2024-03-23T13:24:46;3.63;;;1.73;;
11839;SDS011;5979;50.800;4.904;2024-03-23T13:27:12;3.17;;;1.60;;
11839;SDS011;5979;50.800;4.904;2024-03-23T13:29:38;3.60;;;2.20;;
11839;SDS011;5979;50.800;4.904;2024-03-23T13:32:04;6.65;;;1.92;;
11839;SDS011;5979;50.800;4.904;2024-03-23T13:34:29;2.05;;;1.92;;
11839;SDS011;5979;50.800;4.904;2024-03-23T13:36:55;4.40;;;1.30;;
11839;SDS011;5979;50.800;4.904;2024-03-23T13:39:24;2.95;;;1.40;;
11839;SDS011;5979;50.800;4.904;2024-03-23T13:41:52;4.47;;;1.65;;
11839;SDS011;5979;50.800;4.904;2024-03-23T13:44:19;7.55;;;2.03;;
11839;SDS011;5979;50.800;4.904;2024-03-23T13:46:45;2.80;;;1.45;;
11839;SDS011;5979;50.800;4.904;2024-03-23T13:49:25;3.35;;;1.63;;
11839;SDS011;5979;50.800;4.904;2024-03-23T13:51:51;4.75;;;1.70;;
11839;SDS011;5979;50.800;4.904;2024-03-23T13:54:17;4.43;;;1.65;;
11839;SDS011;5979;50.800;4.904;2024-03-23T13:56:43;3.10;;;1.40;;
11839;SDS011;5979;50.800;4.904;2024-03-23T13:59:09;1.83;;;1.48;;
11839;SDS011;5979;50.800;4.904;2024-03-23T14:01:35;2.85;;;1.25;;
11839;SDS011;5979;50.800;4.904;2024-03-23T14:04:01;2.50;;;1.20;;
11839;SDS011;5979;50.800;4.904;2024-03-23T14:06:26;2.58;;;1.42;;
11839;SDS011;5979;50.800;4.904;2024-03-23T14:08:52;1.90;;;1.02;;
11839;SDS011;5979;50.800;4.904;2024-03-23T14:11:18;1.65;;;0.90;;
11839;SDS011;5979;50.800;4.904;2024-03-23T14:13:44;1.52;;;1.02;;
11839;SDS011;5979;50.800;4.904;2024-03-23T14:16:10;3.30;;;1.20;;
11839;SDS011;5979;50.800;4.904;2024-03-23T14:18:35;3.38;;;1.35;;
11839;SDS011;5979;50.800;4.904;2024-03-23T14:21:01;2.03;;;1.40;;
11839;SDS011;5979;50.800;4.904;2024-03-23T14:23:28;1.58;;;0.98;;
11839;SDS011;5979;50.800;4.904;2024-03-23T14:25:57;2.70;;;1.10;;
11839;SDS011;5979;50.800;4.904;2024-03-23T14:28:23;1.65;;;1.50;;
11839;SDS011;5979;50.800;4.904;2024-03-23T14:30:49;1.83;;;1.33;;
11839;SDS011;5979;50.800;4.904;2024-03-23T14:33:16;3.67;;;1.20;;
11839;SDS011;5979;50.800;4.904;2024-03-23T14:35:42;1.35;;;1.13;;
11839;SDS011;5979;50.800;4.904;2024-03-23T14:38:08;1.33;;;1.23;;
11839;SDS011;5979;50.800;4.904;2024-03-23T14:40:34;3.50;;;1.27;;
11839;SDS011;5979;50.800;4.904;2024-03-23T14:43:00;1.42;;;1.00;;
11839;SDS011;5979;50.800;4.904;2024-03-23T14:45:27;2.00;;;1.27;;
11839;SDS011;5979;50.800;4.904;2024-03-23T14:47:53;6.13;;;1.38;;
11839;SDS011;5979;50.800;4.904;2024-03-23T14:50:19;3.33;;;1.35;;
11839;SDS011;5979;50.800;4.904;2024-03-23T14:52:44;2.47;;;1.20;;
11839;SDS011;5979;50.800;4.904;2024-03-23T14:55:13;2.20;;;0.82;;
11839;SDS011;5979;50.800;4.904;2024-03-23T14:57:40;2.20;;;1.15;;
11839;SDS011;5979;50.800;4.904;2024-03-23T15:00:06;1.25;;;0.90;;
11839;SDS011;5979;50.800;4.904;2024-03-23T15:02:33;1.20;;;1.10;;
11839;SDS011;5979;50.800;4.904;2024-03-23T15:04:59;2.15;;;1.10;;
11839;SDS011;5979;50.800;4.904;2024-03-23T15:07:25;1.58;;;1.05;;
11839;SDS011;5979;50.800;4.904;2024-03-23T15:09:51;3.17;;;1.20;;
11839;SDS011;5979;50.800;4.904;2024-03-23T15:12:18;2.72;;;1.40;;
11839;SDS011;5979;50.800;4.904;2024-03-23T15:14:44;2.58;;;1.13;;
11839;SDS011;5979;50.800;4.904;2024-03-23T15:17:11;2.50;;;1.30;;
11839;SDS011;5979;50.800;4.904;2024-03-23T15:19:36;2.75;;;1.38;;
11839;SDS011;5979;50.800;4.904;2024-03-23T15:22:02;4.50;;;1.33;;
11839;SDS011;5979;50.800;4.904;2024-03-23T15:24:28;2.97;;;1.27;;
11839;SDS011;5979;50.800;4.904;2024-03-23T15:26:54;2.05;;;1.50;;
11839;SDS011;5979;50.800;4.904;2024-03-23T15:29:20;4.72;;;2.10;;
11839;SDS011;5979;50.800;4.904;2024-03-23T15:31:47;3.03;;;1.55;;
11839;SDS011;5979;50.800;4.904;2024-03-23T15:34:15;1.92;;;1.50;;
11839;SDS011;5979;50.800;4.904;2024-03-23T15:36:41;2.83;;;1.50;;
11839;SDS011;5979;50.800;4.904;2024-03-23T15:39:07;2.30;;;1.33;;
11839;SDS011;5979;50.800;4.904;2024-03-23T15:41:33;2.08;;;1.40;;
11839;SDS011;5979;50.800;4.904;2024-03-23T15:44:00;3.05;;;1.38;;
11839;SDS011;5979;50.800;4.904;2024-03-23T15:46:26;3.60;;;1.50;;
11839;SDS011;5979;50.800;4.904;2024-03-23T15:48:52;5.03;;;1.55;;
11839;SDS011;5979;50.800;4.904;2024-03-23T15:51:19;3.38;;;1.90;;
11839;SDS011;5979;50.800;4.904;2024-03-23T15:53:45;2.67;;;1.52;;
11839;SDS011;5979;50.800;4.904;2024-03-23T15:56:11;3.00;;;1.60;;
11839;SDS011;5979;50.800;4.904;2024-03-23T15:58:37;4.13;;;1.52;;
11839;SDS011;5979;50.800;4.904;2024-03-23T16:01:07;3.78;;;1.60;;
11839;SDS011;5979;50.800;4.904;2024-03-23T16:03:36;4.50;;;1.50;;